sensor_id;sensor_type;location;lat;lon;timestamp;pressure;altitude;pressure_sealevel;temperature;humidity
77019;BME280;66044;53.142;17.962;2023-01-01T00:01:22;100455.30;;;14.06;65.89
77019;BME280;66044;53.142;17.962;2023-01-01T00:03:50;100460.22;;;14.01;65.93
77019;BME280;66044;53.142;17.962;2023-01-01T00:06:17;100460.20;;;13.96;66.03
77019;BME280;66044;53.142;17.962;2023-01-01T00:08:43;100462.66;;;13.93;66.09
77019;BME280;66044;53.142;17.962;2023-01-01T00:11:10;100470.98;;;13.92;66.09
77019;BME280;66044;53.142;17.962;2023-01-01T00:13:39;100465.80;;;13.92;66.06
77019;BME280;66044;53.142;17.962;2023-01-01T00:16:10;100473.48;;;13.89;66.18
77019;BME280;66044;53.142;17.962;2023-01-01T00:18:38;100468.52;;;13.85;66.31
77019;BME280;66044;53.142;17.962;2023-01-01T00:21:11;100473.27;;;13.83;66.19
77019;BME280;66044;53.142;17.962;2023-01-01T00:23:38;100476.64;;;13.79;66.34
77019;BME280;66044;53.142;17.962;2023-01-01T00:26:13;100472.05;;;13.78;66.35
77019;BME280;66044;53.142;17.962;2023-01-01T00:28:40;100476.42;;;13.79;66.36
77019;BME280;66044;53.142;17.962;2023-01-01T00:31:08;100475.63;;;13.79;66.30
77019;BME280;66044;53.142;17.962;2023-01-01T00:33:35;100485.67;;;13.77;66.30
77019;BME280;66044;53.142;17.962;2023-01-01T00:36:09;100489.41;;;13.74;66.40
77019;BME280;66044;53.142;17.962;2023-01-01T00:38:36;100490.18;;;13.71;66.44
77019;BME280;66044;53.142;17.962;2023-01-01T00:41:03;100486.96;;;13.72;66.39
77019;BME280;66044;53.142;17.962;2023-01-01T00:43:29;100483.98;;;13.73;66.39
77019;BME280;66044;53.142;17.962;2023-01-01T00:45:56;100482.38;;;13.73;66.49
77019;BME280;66044;53.142;17.962;2023-01-01T00:48:23;100481.20;;;13.73;66.49
77019;BME280;66044;53.142;17.962;2023-01-01T00:50:51;100482.17;;;13.72;66.51
77019;BME280;66044;53.142;17.962;2023-01-01T00:53:19;100475.25;;;13.70;66.44
77019;BME280;66044;53.142;17.962;2023-01-01T00:55:47;100478.88;;;13.70;66.48
77019;BME280;66044;53.142;17.962;2023-01-01T00:58:14;100477.54;;;13.72;66.42
77019;BME280;66044;53.142;17.962;2023-01-01T01:00:41;100469.78;;;13.72;66.39
77019;BME280;66044;53.142;17.962;2023-01-01T01:03:09;100469.52;;;13.71;66.45
77019;BME280;66044;53.142;17.962;2023-01-01T01:05:37;100469.92;;;13.69;66.58
77019;BME280;66044;53.142;17.962;2023-01-01T01:08:03;100458.79;;;13.67;66.55
77019;BME280;66044;53.142;17.962;2023-01-01T01:10:30;100457.17;;;13.68;66.52
77019;BME280;66044;53.142;17.962;2023-01-01T01:12:56;100457.75;;;13.70;66.38
77019;BME280;66044;53.142;17.962;2023-01-01T01:15:23;100460.52;;;13.69;66.50
77019;BME280;66044;53.142;17.962;2023-01-01T01:17:49;100467.89;;;13.68;66.42
77019;BME280;66044;53.142;17.962;2023-01-01T01:20:16;100479.55;;;13.65;66.44
77019;BME280;66044;53.142;17.962;2023-01-01T01:22:43;100475.48;;;13.63;66.50
77019;BME280;66044;53.142;17.962;2023-01-01T01:25:09;100480.27;;;13.63;66.54
77019;BME280;66044;53.142;17.962;2023-01-01T01:27:36;100488.04;;;13.65;66.52
77019;BME280;66044;53.142;17.962;2023-01-01T01:30:02;100490.83;;;13.66;66.52
77019;BME280;66044;53.142;17.962;2023-01-01T01:32:29;100486.91;;;13.63;66.62
77019;BME280;66044;53.142;17.962;2023-01-01T01:34:56;100486.95;;;13.61;66.54
77019;BME280;66044;53.142;17.962;2023-01-01T01:37:22;100498.38;;;13.59;66.53
77019;BME280;66044;53.142;17.962;2023-01-01T01:39:49;100498.06;;;13.58;66.52
77019;BME280;66044;53.142;17.962;2023-01-01T01:42:16;100498.11;;;13.60;66.52
77019;BME280;66044;53.142;17.962;2023-01-01T01:47:23;100487.02;;;13.57;66.66
77019;BME280;66044;53.142;17.962;2023-01-01T01:49:55;100492.11;;;13.55;66.44
77019;BME280;66044;53.142;17.962;2023-01-01T01:52:23;100480.27;;;13.52;66.58
77019;BME280;66044;53.142;17.962;2023-01-01T01:54:50;100499.70;;;13.52;66.47
77019;BME280;66044;53.142;17.962;2023-01-01T01:57:17;100483.05;;;13.53;66.38
77019;BME280;66044;53.142;17.962;2023-01-01T01:59:47;100488.83;;;13.52;66.66
77019;BME280;66044;53.142;17.962;2023-01-01T02:02:28;100500.67;;;13.51;66.44
77019;BME280;66044;53.142;17.962;2023-01-01T02:04:57;100493.02;;;13.50;66.46
77019;BME280;66044;53.142;17.962;2023-01-01T02:07:25;100488.58;;;13.48;66.23
77019;BME280;66044;53.142;17.962;2023-01-01T02:09:54;100495.71;;;13.50;66.22
77019;BME280;66044;53.142;17.962;2023-01-01T02:12:20;100496.88;;;13.54;66.19
77019;BME280;66044;53.142;17.962;2023-01-01T02:14:47;100503.69;;;13.58;66.00
77019;BME280;66044;53.142;17.962;2023-01-01T02:17:23;100489.69;;;13.60;66.00
77019;BME280;66044;53.142;17.962;2023-01-01T02:25:54;100497.15;;;13.69;65.51
77019;BME280;66044;53.142;17.962;2023-01-01T02:28:42;100498.61;;;13.75;65.29
77019;BME280;66044;53.142;17.962;2023-01-01T02:31:18;100505.80;;;13.79;65.11
77019;BME280;66044;53.142;17.962;2023-01-01T02:33:48;100498.09;;;13.82;64.90
77019;BME280;66044;53.142;17.962;2023-01-01T02:36:16;100507.45;;;13.84;64.87
77019;BME280;66044;53.142;17.962;2023-01-01T02:38:51;100507.69;;;13.87;64.73
77019;BME280;66044;53.142;17.962;2023-01-01T02:41:31;100506.44;;;13.93;64.48
77019;BME280;66044;53.142;17.962;2023-01-01T02:43:59;100498.27;;;13.98;64.32
77019;BME280;66044;53.142;17.962;2023-01-01T02:46:32;100494.83;;;13.99;64.24
77019;BME280;66044;53.142;17.962;2023-01-01T02:48:59;100505.20;;;14.01;64.15
77019;BME280;66044;53.142;17.962;2023-01-01T02:56:53;100498.03;;;14.04;63.62
77019;BME280;66044;53.142;17.962;2023-01-01T03:02:24;100494.98;;;14.12;63.26
77019;BME280;66044;53.142;17.962;2023-01-01T03:05:07;100498.16;;;14.13;63.11
77019;BME280;66044;53.142;17.962;2023-01-01T03:10:40;100499.16;;;14.17;62.74
77019;BME280;66044;53.142;17.962;2023-01-01T03:13:27;100496.48;;;14.18;62.66
77019;BME280;66044;53.142;17.962;2023-01-01T03:20:59;100507.07;;;14.23;62.34
77019;BME280;66044;53.142;17.962;2023-01-01T03:23:35;100509.11;;;14.21;62.23
77019;BME280;66044;53.142;17.962;2023-01-01T03:26:08;100507.49;;;14.20;62.11
77019;BME280;66044;53.142;17.962;2023-01-01T03:28:45;100508.65;;;14.20;62.06
77019;BME280;66044;53.142;17.962;2023-01-01T03:31:17;100507.98;;;14.18;61.94
77019;BME280;66044;53.142;17.962;2023-01-01T03:33:46;100508.80;;;14.17;61.86
77019;BME280;66044;53.142;17.962;2023-01-01T03:36:20;100512.52;;;14.15;61.88
77019;BME280;66044;53.142;17.962;2023-01-01T03:38:53;100514.19;;;14.12;61.80
77019;BME280;66044;53.142;17.962;2023-01-01T03:41:39;100512.74;;;14.10;61.71
77019;BME280;66044;53.142;17.962;2023-01-01T03:46:44;100524.63;;;14.10;61.67
77019;BME280;66044;53.142;17.962;2023-01-01T03:49:11;100520.48;;;14.08;61.73
77019;BME280;66044;53.142;17.962;2023-01-01T04:00:22;100526.31;;;14.00;61.40
77019;BME280;66044;53.142;17.962;2023-01-01T04:05:42;100530.82;;;13.94;61.27
77019;BME280;66044;53.142;17.962;2023-01-01T04:08:11;100532.48;;;13.92;61.31
77019;BME280;66044;53.142;17.962;2023-01-01T04:10:42;100531.60;;;13.91;61.18
77019;BME280;66044;53.142;17.962;2023-01-01T04:13:12;100539.89;;;13.93;61.17
77019;BME280;66044;53.142;17.962;2023-01-01T04:15:39;100544.76;;;13.93;61.06
77019;BME280;66044;53.142;17.962;2023-01-01T04:18:05;100541.86;;;13.91;61.00
77019;BME280;66044;53.142;17.962;2023-01-01T04:20:32;100542.98;;;13.89;60.96
77019;BME280;66044;53.142;17.962;2023-01-01T04:22:59;100544.95;;;13.87;60.92
77019;BME280;66044;53.142;17.962;2023-01-01T04:25:27;100559.48;;;13.85;60.85
77019;BME280;66044;53.142;17.962;2023-01-01T04:27:54;100566.16;;;13.84;60.92
77019;BME280;66044;53.142;17.962;2023-01-01T04:30:20;100571.91;;;13.82;60.87
77019;BME280;66044;53.142;17.962;2023-01-01T04:32:47;100568.03;;;13.79;60.85
77019;BME280;66044;53.142;17.962;2023-01-01T04:35:13;100571.70;;;13.78;60.75
77019;BME280;66044;53.142;17.962;2023-01-01T04:37:42;100578.23;;;13.76;60.71
77019;BME280;66044;53.142;17.962;2023-01-01T04:40:13;100573.44;;;13.75;60.74
77019;BME280;66044;53.142;17.962;2023-01-01T04:42:39;100570.17;;;13.74;60.52
77019;BME280;66044;53.142;17.962;2023-01-01T04:45:06;100578.20;;;13.75;60.66
77019;BME280;66044;53.142;17.962;2023-01-01T04:47:33;100579.47;;;13.77;60.64
77019;BME280;66044;53.142;17.962;2023-01-01T04:50:00;100582.02;;;13.77;60.48
77019;BME280;66044;53.142;17.962;2023-01-01T04:52:26;100581.16;;;13.76;60.49
77019;BME280;66044;53.142;17.962;2023-01-01T04:54:52;100579.66;;;13.74;60.42
77019;BME280;66044;53.142;17.962;2023-01-01T04:57:19;100578.70;;;13.73;60.45
77019;BME280;66044;53.142;17.962;2023-01-01T04:59:45;100576.64;;;13.71;60.44
77019;BME280;66044;53.142;17.962;2023-01-01T05:02:12;100586.77;;;13.69;60.60
77019;BME280;66044;53.142;17.962;2023-01-01T05:04:38;100574.81;;;13.66;60.53
77019;BME280;66044;53.142;17.962;2023-01-01T05:07:05;100576.49;;;13.62;60.42
77019;BME280;66044;53.142;17.962;2023-01-01T05:09:31;100584.38;;;13.59;60.58
77019;BME280;66044;53.142;17.962;2023-01-01T05:11:57;100591.54;;;13.56;60.76
77019;BME280;66044;53.142;17.962;2023-01-01T05:14:24;100593.39;;;13.52;60.50
77019;BME280;66044;53.142;17.962;2023-01-01T05:16:51;100600.35;;;13.50;60.56
77019;BME280;66044;53.142;17.962;2023-01-01T05:19:17;100584.29;;;13.47;60.51
77019;BME280;66044;53.142;17.962;2023-01-01T05:21:44;100586.65;;;13.46;60.69
77019;BME280;66044;53.142;17.962;2023-01-01T05:24:11;100593.45;;;13.47;60.61
77019;BME280;66044;53.142;17.962;2023-01-01T05:26:41;100596.84;;;13.46;60.61
77019;BME280;66044;53.142;17.962;2023-01-01T05:29:08;100597.38;;;13.43;60.63
77019;BME280;66044;53.142;17.962;2023-01-01T05:31:35;100608.14;;;13.42;60.70
77019;BME280;66044;53.142;17.962;2023-01-01T05:34:02;100614.08;;;13.39;60.63
77019;BME280;66044;53.142;17.962;2023-01-01T05:36:32;100623.42;;;13.36;60.70
77019;BME280;66044;53.142;17.962;2023-01-01T05:38:59;100622.61;;;13.33;60.74
77019;BME280;66044;53.142;17.962;2023-01-01T05:41:25;100625.02;;;13.30;60.78
77019;BME280;66044;53.142;17.962;2023-01-01T05:43:52;100625.41;;;13.27;60.61
77019;BME280;66044;53.142;17.962;2023-01-01T05:46:21;100628.27;;;13.25;60.68
77019;BME280;66044;53.142;17.962;2023-01-01T05:48:48;100631.98;;;13.23;60.69
77019;BME280;66044;53.142;17.962;2023-01-01T05:51:24;100636.50;;;13.22;60.69
77019;BME280;66044;53.142;17.962;2023-01-01T05:53:52;100632.39;;;13.20;60.40
77019;BME280;66044;53.142;17.962;2023-01-01T05:56:19;100633.72;;;13.21;60.55
77019;BME280;66044;53.142;17.962;2023-01-01T05:58:46;100631.52;;;13.23;60.33
77019;BME280;66044;53.142;17.962;2023-01-01T06:01:18;100630.56;;;13.27;60.48
77019;BME280;66044;53.142;17.962;2023-01-01T06:03:45;100634.31;;;13.29;60.20
77019;BME280;66044;53.142;17.962;2023-01-01T06:06:16;100632.83;;;13.28;60.31
77019;BME280;66044;53.142;17.962;2023-01-01T06:08:48;100629.59;;;13.28;60.19
77019;BME280;66044;53.142;17.962;2023-01-01T06:11:15;100629.54;;;13.27;60.21
77019;BME280;66044;53.142;17.962;2023-01-01T06:13:41;100626.20;;;13.26;60.20
77019;BME280;66044;53.142;17.962;2023-01-01T06:16:08;100626.07;;;13.24;60.02
77019;BME280;66044;53.142;17.962;2023-01-01T06:18:36;100631.44;;;13.23;60.19
77019;BME280;66044;53.142;17.962;2023-01-01T06:21:14;100632.16;;;13.21;60.07
77019;BME280;66044;53.142;17.962;2023-01-01T06:23:41;100639.27;;;13.19;60.15
77019;BME280;66044;53.142;17.962;2023-01-01T06:26:17;100641.58;;;13.16;60.07
77019;BME280;66044;53.142;17.962;2023-01-01T06:28:45;100647.70;;;13.14;60.03
77019;BME280;66044;53.142;17.962;2023-01-01T06:31:14;100642.75;;;13.12;60.12
77019;BME280;66044;53.142;17.962;2023-01-01T06:33:41;100648.89;;;13.11;60.07
77019;BME280;66044;53.142;17.962;2023-01-01T06:36:11;100649.83;;;13.09;60.17
77019;BME280;66044;53.142;17.962;2023-01-01T06:38:40;100653.02;;;13.07;60.15
77019;BME280;66044;53.142;17.962;2023-01-01T06:41:10;100652.66;;;13.05;60.09
77019;BME280;66044;53.142;17.962;2023-01-01T06:43:37;100660.13;;;13.05;59.89
77019;BME280;66044;53.142;17.962;2023-01-01T06:46:04;100668.67;;;13.04;60.21
77019;BME280;66044;53.142;17.962;2023-01-01T06:48:33;100676.29;;;13.04;59.99
77019;BME280;66044;53.142;17.962;2023-01-01T06:51:08;100680.60;;;13.04;59.89
77019;BME280;66044;53.142;17.962;2023-01-01T06:53:35;100678.02;;;13.08;59.96
77019;BME280;66044;53.142;17.962;2023-01-01T06:56:03;100678.16;;;13.13;59.65
77019;BME280;66044;53.142;17.962;2023-01-01T06:58:29;100673.66;;;13.17;59.52
77019;BME280;66044;53.142;17.962;2023-01-01T07:01:16;100670.21;;;13.20;59.61
77019;BME280;66044;53.142;17.962;2023-01-01T07:03:43;100670.40;;;13.24;59.47
77019;BME280;66044;53.142;17.962;2023-01-01T07:06:10;100677.63;;;13.29;59.42
77019;BME280;66044;53.142;17.962;2023-01-01T07:08:36;100682.84;;;13.34;59.23
77019;BME280;66044;53.142;17.962;2023-01-01T07:11:03;100685.47;;;13.39;59.02
77019;BME280;66044;53.142;17.962;2023-01-01T07:13:29;100679.98;;;13.44;59.20
77019;BME280;66044;53.142;17.962;2023-01-01T07:15:56;100686.30;;;13.50;59.02
77019;BME280;66044;53.142;17.962;2023-01-01T07:18:23;100690.91;;;13.58;58.78
77019;BME280;66044;53.142;17.962;2023-01-01T07:20:56;100692.33;;;13.65;58.59
77019;BME280;66044;53.142;17.962;2023-01-01T07:23:25;100695.17;;;13.74;58.42
77019;BME280;66044;53.142;17.962;2023-01-01T07:25:52;100699.63;;;13.81;58.29
77019;BME280;66044;53.142;17.962;2023-01-01T07:28:20;100697.48;;;13.88;58.04
77019;BME280;66044;53.142;17.962;2023-01-01T07:30:47;100704.16;;;13.95;57.94
77019;BME280;66044;53.142;17.962;2023-01-01T07:33:16;100698.67;;;14.02;57.69
77019;BME280;66044;53.142;17.962;2023-01-01T07:35:43;100720.00;;;14.09;57.59
77019;BME280;66044;53.142;17.962;2023-01-01T07:38:11;100719.02;;;14.16;57.48
77019;BME280;66044;53.142;17.962;2023-01-01T07:40:38;100721.60;;;14.23;57.15
77019;BME280;66044;53.142;17.962;2023-01-01T07:43:04;100712.91;;;14.30;56.95
77019;BME280;66044;53.142;17.962;2023-01-01T07:45:31;100734.84;;;14.36;56.82
77019;BME280;66044;53.142;17.962;2023-01-01T07:47:58;100741.69;;;14.41;56.62
77019;BME280;66044;53.142;17.962;2023-01-01T07:50:28;100749.20;;;14.46;56.59
77019;BME280;66044;53.142;17.962;2023-01-01T07:52:55;100755.94;;;14.49;56.43
77019;BME280;66044;53.142;17.962;2023-01-01T07:55:22;100757.08;;;14.51;56.42
77019;BME280;66044;53.142;17.962;2023-01-01T07:57:49;100754.80;;;14.53;56.36
77019;BME280;66044;53.142;17.962;2023-01-01T08:00:18;100768.89;;;14.54;56.17
77019;BME280;66044;53.142;17.962;2023-01-01T08:02:45;100765.82;;;14.55;56.38
77019;BME280;66044;53.142;17.962;2023-01-01T08:05:12;100773.34;;;14.56;56.21
77019;BME280;66044;53.142;17.962;2023-01-01T08:07:38;100761.85;;;14.57;56.10
77019;BME280;66044;53.142;17.962;2023-01-01T08:10:05;100760.11;;;14.58;56.08
77019;BME280;66044;53.142;17.962;2023-01-01T08:12:32;100763.99;;;14.60;56.04
77019;BME280;66044;53.142;17.962;2023-01-01T08:14:59;100758.35;;;14.63;55.87
77019;BME280;66044;53.142;17.962;2023-01-01T08:17:25;100756.34;;;14.65;55.70
77019;BME280;66044;53.142;17.962;2023-01-01T08:19:52;100757.30;;;14.68;55.74
77019;BME280;66044;53.142;17.962;2023-01-01T08:22:18;100756.02;;;14.72;55.55
77019;BME280;66044;53.142;17.962;2023-01-01T08:24:45;100753.42;;;14.77;55.49
77019;BME280;66044;53.142;17.962;2023-01-01T08:27:12;100750.64;;;14.84;55.38
77019;BME280;66044;53.142;17.962;2023-01-01T08:29:39;100749.95;;;14.91;55.14
77019;BME280;66044;53.142;17.962;2023-01-01T08:32:06;100746.66;;;14.96;54.89
77019;BME280;66044;53.142;17.962;2023-01-01T08:34:32;100749.00;;;15.00;54.89
77019;BME280;66044;53.142;17.962;2023-01-01T08:36:59;100749.21;;;15.02;54.87
77019;BME280;66044;53.142;17.962;2023-01-01T08:39:25;100747.96;;;15.01;54.77
77019;BME280;66044;53.142;17.962;2023-01-01T08:41:52;100747.02;;;15.01;54.72
77019;BME280;66044;53.142;17.962;2023-01-01T08:44:18;100746.55;;;15.00;54.57
77019;BME280;66044;53.142;17.962;2023-01-01T08:46:45;100742.32;;;15.02;54.32
77019;BME280;66044;53.142;17.962;2023-01-01T08:49:11;100744.90;;;15.03;54.28
77019;BME280;66044;53.142;17.962;2023-01-01T08:51:38;100747.27;;;15.06;54.02
77019;BME280;66044;53.142;17.962;2023-01-01T08:54:04;100745.73;;;15.08;53.97
77019;BME280;66044;53.142;17.962;2023-01-01T08:56:31;100747.65;;;15.13;53.52
77019;BME280;66044;53.142;17.962;2023-01-01T08:58:59;100750.77;;;15.17;53.44
77019;BME280;66044;53.142;17.962;2023-01-01T09:01:26;100751.77;;;15.21;53.40
77019;BME280;66044;53.142;17.962;2023-01-01T09:03:53;100754.17;;;15.24;53.05
77019;BME280;66044;53.142;17.962;2023-01-01T09:06:19;100754.16;;;15.28;52.87
77019;BME280;66044;53.142;17.962;2023-01-01T09:08:46;100766.72;;;15.33;52.75
77019;BME280;66044;53.142;17.962;2023-01-01T09:11:26;100757.91;;;15.37;52.67
77019;BME280;66044;53.142;17.962;2023-01-01T09:13:53;100756.15;;;15.41;52.61
77019;BME280;66044;53.142;17.962;2023-01-01T09:16:21;100772.01;;;15.45;52.48
77019;BME280;66044;53.142;17.962;2023-01-01T09:18:48;100770.40;;;15.50;52.46
77019;BME280;66044;53.142;17.962;2023-01-01T09:21:14;100769.48;;;15.53;52.20
77019;BME280;66044;53.142;17.962;2023-01-01T09:23:41;100771.73;;;15.57;52.33
77019;BME280;66044;53.142;17.962;2023-01-01T09:26:08;100772.72;;;15.60;52.51
77019;BME280;66044;53.142;17.962;2023-01-01T09:28:36;100773.94;;;15.63;52.31
77019;BME280;66044;53.142;17.962;2023-01-01T09:31:03;100773.14;;;15.66;52.30
77019;BME280;66044;53.142;17.962;2023-01-01T09:33:32;100768.43;;;15.70;52.15
77019;BME280;66044;53.142;17.962;2023-01-01T09:36:26;100767.42;;;15.74;52.03
77019;BME280;66044;53.142;17.962;2023-01-01T09:38:53;100771.39;;;15.80;51.55
77019;BME280;66044;53.142;17.962;2023-01-01T09:42:11;100774.05;;;15.84;51.57
77019;BME280;66044;53.142;17.962;2023-01-01T09:46:47;100783.05;;;15.94;51.31
77019;BME280;66044;53.142;17.962;2023-01-01T09:49:24;100779.14;;;15.97;51.12
77019;BME280;66044;53.142;17.962;2023-01-01T09:51:56;100774.58;;;16.00;50.81
77019;BME280;66044;53.142;17.962;2023-01-01T09:57:24;100793.38;;;16.09;50.59
77019;BME280;66044;53.142;17.962;2023-01-01T09:59:53;100793.53;;;16.12;50.65
77019;BME280;66044;53.142;17.962;2023-01-01T10:02:53;100796.75;;;16.15;50.56
77019;BME280;66044;53.142;17.962;2023-01-01T10:05:41;100796.61;;;16.20;50.48
77019;BME280;66044;53.142;17.962;2023-01-01T10:08:28;100810.15;;;16.23;50.17
77019;BME280;66044;53.142;17.962;2023-01-01T10:13:45;100811.42;;;16.26;50.03
77019;BME280;66044;53.142;17.962;2023-01-01T10:19:01;100815.01;;;16.27;49.97
77019;BME280;66044;53.142;17.962;2023-01-01T10:21:36;100806.08;;;16.25;50.25
77019;BME280;66044;53.142;17.962;2023-01-01T10:26:50;100812.73;;;16.20;50.04
77019;BME280;66044;53.142;17.962;2023-01-01T10:29:27;100809.66;;;16.18;50.01
77019;BME280;66044;53.142;17.962;2023-01-01T10:31:57;100810.00;;;16.15;50.34
77019;BME280;66044;53.142;17.962;2023-01-01T10:34:29;100806.30;;;16.12;50.27
77019;BME280;66044;53.142;17.962;2023-01-01T10:36:58;100810.28;;;16.10;50.08
77019;BME280;66044;53.142;17.962;2023-01-01T10:39:26;100798.34;;;16.09;49.96
77019;BME280;66044;53.142;17.962;2023-01-01T10:41:53;100796.86;;;16.07;50.19
77019;BME280;66044;53.142;17.962;2023-01-01T10:44:26;100790.65;;;16.07;50.15
77019;BME280;66044;53.142;17.962;2023-01-01T10:46:59;100788.80;;;16.07;49.97
77019;BME280;66044;53.142;17.962;2023-01-01T10:49:29;100796.47;;;16.07;50.17
77019;BME280;66044;53.142;17.962;2023-01-01T10:51:55;100797.17;;;16.08;50.33
77019;BME280;66044;53.142;17.962;2023-01-01T10:54:34;100801.28;;;16.08;50.08
77019;BME280;66044;53.142;17.962;2023-01-01T10:57:15;100801.59;;;16.09;50.07
77019;BME280;66044;53.142;17.962;2023-01-01T10:59:44;100807.17;;;16.08;50.01
77019;BME280;66044;53.142;17.962;2023-01-01T11:02:25;100814.67;;;16.09;50.16
77019;BME280;66044;53.142;17.962;2023-01-01T11:05:12;100817.08;;;16.09;50.20
77019;BME280;66044;53.142;17.962;2023-01-01T11:07:40;100820.33;;;16.08;50.06
77019;BME280;66044;53.142;17.962;2023-01-01T11:10:16;100829.06;;;16.07;50.30
77019;BME280;66044;53.142;17.962;2023-01-01T11:12:44;100826.11;;;16.07;50.40
77019;BME280;66044;53.142;17.962;2023-01-01T11:15:36;100818.11;;;16.06;50.00
77019;BME280;66044;53.142;17.962;2023-01-01T11:18:06;100808.71;;;16.04;50.12
77019;BME280;66044;53.142;17.962;2023-01-01T11:20:35;100808.99;;;16.03;50.14
77019;BME280;66044;53.142;17.962;2023-01-01T11:26:00;100817.02;;;16.02;50.14
77019;BME280;66044;53.142;17.962;2023-01-01T11:28:27;100814.71;;;16.03;50.06
77019;BME280;66044;53.142;17.962;2023-01-01T11:31:17;100822.64;;;16.04;50.27
77019;BME280;66044;53.142;17.962;2023-01-01T11:33:50;100816.05;;;16.07;50.15
77019;BME280;66044;53.142;17.962;2023-01-01T11:36:33;100814.67;;;16.08;50.24
77019;BME280;66044;53.142;17.962;2023-01-01T11:41:47;100832.52;;;16.11;50.26
77019;BME280;66044;53.142;17.962;2023-01-01T11:44:32;100831.95;;;16.12;50.30
77019;BME280;66044;53.142;17.962;2023-01-01T11:47:00;100825.43;;;16.12;50.41
77019;BME280;66044;53.142;17.962;2023-01-01T11:49:28;100828.04;;;16.11;50.32
77019;BME280;66044;53.142;17.962;2023-01-01T11:51:56;100832.52;;;16.11;50.58
77019;BME280;66044;53.142;17.962;2023-01-01T11:54:33;100828.50;;;16.11;50.43
77019;BME280;66044;53.142;17.962;2023-01-01T11:57:17;100827.48;;;16.11;50.47
77019;BME280;66044;53.142;17.962;2023-01-01T11:59:54;100832.34;;;16.10;50.59
77019;BME280;66044;53.142;17.962;2023-01-01T12:02:39;100836.05;;;16.10;50.63
77019;BME280;66044;53.142;17.962;2023-01-01T12:05:19;100846.27;;;16.08;50.68
77019;BME280;66044;53.142;17.962;2023-01-01T12:07:47;100842.08;;;16.04;50.63
77019;BME280;66044;53.142;17.962;2023-01-01T12:10:22;100844.41;;;16.00;50.57
77019;BME280;66044;53.142;17.962;2023-01-01T12:12:59;100852.27;;;15.98;50.80
77019;BME280;66044;53.142;17.962;2023-01-01T12:15:34;100861.78;;;15.95;50.90
77019;BME280;66044;53.142;17.962;2023-01-01T12:18:24;100864.67;;;15.92;50.86
77019;BME280;66044;53.142;17.962;2023-01-01T12:21:10;100869.12;;;15.90;51.05
77019;BME280;66044;53.142;17.962;2023-01-01T12:23:40;100863.30;;;15.85;50.98
77019;BME280;66044;53.142;17.962;2023-01-01T12:26:26;100869.98;;;15.82;51.30
77019;BME280;66044;53.142;17.962;2023-01-01T12:37:15;100858.45;;;15.75;51.56
77019;BME280;66044;53.142;17.962;2023-01-01T12:43:02;100856.89;;;15.71;51.54
77019;BME280;66044;53.142;17.962;2023-01-01T12:48:41;100862.84;;;15.67;51.99
77019;BME280;66044;53.142;17.962;2023-01-01T12:51:27;100865.97;;;15.65;51.80
77019;BME280;66044;53.142;17.962;2023-01-01T12:54:25;100871.82;;;15.64;51.97
77019;BME280;66044;53.142;17.962;2023-01-01T12:59:35;100884.97;;;15.63;52.04
77019;BME280;66044;53.142;17.962;2023-01-01T13:02:12;100898.20;;;15.63;51.91
77019;BME280;66044;53.142;17.962;2023-01-01T13:04:40;100904.02;;;15.63;52.01
77019;BME280;66044;53.142;17.962;2023-01-01T13:07:11;100898.29;;;15.63;52.12
77019;BME280;66044;53.142;17.962;2023-01-01T13:09:41;100898.29;;;15.64;52.19
77019;BME280;66044;53.142;17.962;2023-01-01T13:12:13;100893.88;;;15.63;52.13
77019;BME280;66044;53.142;17.962;2023-01-01T13:14:43;100894.88;;;15.64;52.06
77019;BME280;66044;53.142;17.962;2023-01-01T13:17:26;100894.88;;;15.63;52.22
77019;BME280;66044;53.142;17.962;2023-01-01T13:20:20;100901.13;;;15.62;52.06
77019;BME280;66044;53.142;17.962;2023-01-01T13:22:48;100909.36;;;15.60;52.31
77019;BME280;66044;53.142;17.962;2023-01-01T13:38:47;100923.48;;;15.50;52.43
77019;BME280;66044;53.142;17.962;2023-01-01T13:41:40;100940.04;;;15.46;52.30
77019;BME280;66044;53.142;17.962;2023-01-01T13:54:53;100940.66;;;15.24;52.86
77019;BME280;66044;53.142;17.962;2023-01-01T14:00:22;100945.28;;;15.14;53.17
77019;BME280;66044;53.142;17.962;2023-01-01T14:02:51;100947.83;;;15.10;53.20
77019;BME280;66044;53.142;17.962;2023-01-01T14:05:29;100952.80;;;15.05;53.44
77019;BME280;66044;53.142;17.962;2023-01-01T14:07:57;100960.30;;;15.02;53.41
77019;BME280;66044;53.142;17.962;2023-01-01T14:13:11;100961.54;;;14.96;53.68
77019;BME280;66044;53.142;17.962;2023-01-01T14:15:51;100947.26;;;14.93;53.65
77019;BME280;66044;53.142;17.962;2023-01-01T14:18:18;100948.14;;;14.92;53.76
77019;BME280;66044;53.142;17.962;2023-01-01T14:20:50;100951.59;;;14.91;53.86
77019;BME280;66044;53.142;17.962;2023-01-01T14:23:30;100960.13;;;14.90;53.82
77019;BME280;66044;53.142;17.962;2023-01-01T14:26:05;100963.51;;;14.89;53.82
77019;BME280;66044;53.142;17.962;2023-01-01T14:28:34;100969.30;;;14.88;53.84
77019;BME280;66044;53.142;17.962;2023-01-01T14:31:12;100978.21;;;14.86;53.86
77019;BME280;66044;53.142;17.962;2023-01-01T14:33:39;100982.77;;;14.83;54.05
77019;BME280;66044;53.142;17.962;2023-01-01T14:38:49;100996.48;;;14.82;54.01
77019;BME280;66044;53.142;17.962;2023-01-01T14:41:36;101004.42;;;14.82;54.01
77019;BME280;66044;53.142;17.962;2023-01-01T14:44:10;101012.39;;;14.82;54.12
77019;BME280;66044;53.142;17.962;2023-01-01T14:46:40;101014.95;;;14.82;54.21